Terminal Aerodrome Forecast
Issued by NWS

Home | Current Version | Previous Version | Text Only | Print | Product List | Glossary Off
Versions: 1 2 3 4 5 6 7 8 9 10 11 12 13 14 15 16 17 18 19 20 21

047
FTUS43 KTOP 212052 AAB
TAFMHK
TAF AMD
KMHK 212052Z 2121/2218 05007KT 6SM -SHRA OVC050
      TEMPO 2121/2124 5SM -SHRA BKN015
     FM220700 02005KT P6SM OVC035=

USA.gov is the U.S. government's official web portal to all federal, state and local government web resources and services.